Time;durP1;ratioP1;P1;durP2;ratioP2;P2;SDS_P1;SDS_P2;PMS_P1;PMS_P2;Temp;Humidity;BMP_temperature;BMP_pressure;BME280_temperature;BME280_humidity;BME280_pressure;Samples;Min_cycle;Max_cycle;Signal;HPM_P1;HPM_P2
2022/11/15 00:00:49;;;;;;;1999.90;999.90;;;7.80;99.90;;;;;;5041505;28;20378;-67
2022/11/15 00:03:16;;;;;;;1999.90;999.90;;;7.70;99.90;;;;;;5032366;28;20048;-67
2022/11/15 00:05:42;;;;;;;1999.90;999.90;;;7.60;99.90;;;;;;5033110;28;20420;-67
2022/11/15 00:08:08;;;;;;;1999.90;999.90;;;7.50;99.90;;;;;;5037734;28;20042;-67
2022/11/15 00:10:34;;;;;;;1999.90;999.90;;;7.40;99.90;;;;;;5038727;28;20029;-67
2022/11/15 00:12:59;;;;;;;1999.90;999.90;;;7.30;99.90;;;;;;5034637;28;20075;-67
2022/11/15 00:15:25;;;;;;;1999.90;999.90;;;7.20;99.90;;;;;;5041367;28;20037;-67
2022/11/15 00:17:50;;;;;;;1999.90;999.90;;;7.10;99.90;;;;;;5021339;28;20080;-67
2022/11/15 00:20:19;;;;;;;1999.90;999.90;;;7.00;99.90;;;;;;5037395;28;20040;-67
2022/11/15 00:22:44;;;;;;;1999.90;999.90;;;6.90;99.90;;;;;;5043125;28;20488;-67
2022/11/15 00:25:10;;;;;;;1999.90;999.90;;;6.80;99.90;;;;;;5034750;28;20050;-67
2022/11/15 00:27:35;;;;;;;1999.90;999.90;;;6.90;99.90;;;;;;5039704;28;20047;-67
2022/11/15 00:30:01;;;;;;;1999.90;999.90;;;6.80;99.90;;;;;;5036812;28;20135;-67
2022/11/15 00:32:31;;;;;;;1999.90;999.90;;;6.90;99.90;;;;;;5038674;28;20045;-67
2022/11/15 00:34:56;;;;;;;1999.90;999.90;;;7.00;99.90;;;;;;5041992;28;20139;-67
2022/11/15 00:37:22;;;;;;;1999.90;999.90;;;7.10;99.90;;;;;;5033328;28;20048;-67
2022/11/15 00:39:47;;;;;;;1999.90;999.90;;;7.20;99.90;;;;;;5037382;28;20051;-67
2022/11/15 00:42:13;;;;;;;1999.90;999.90;;;7.30;99.90;;;;;;5038829;28;20041;-67
2022/11/15 00:44:38;;;;;;;1999.90;999.90;;;7.40;99.90;;;;;;5045764;28;20045;-67
2022/11/15 00:47:04;;;;;;;1999.90;999.90;;;7.50;99.90;;;;;;5039449;28;20526;-67
2022/11/15 00:49:29;;;;;;;1999.90;999.90;;;7.50;99.90;;;;;;5020262;28;20102;-67
2022/11/15 00:51:55;;;;;;;1999.90;999.90;;;7.60;99.90;;;;;;5025510;28;20043;-67
2022/11/15 00:54:20;;;;;;;1999.90;999.90;;;7.60;99.90;;;;;;5019438;28;20041;-67
2022/11/15 00:56:46;;;;;;;1999.90;999.90;;;7.60;99.90;;;;;;5018688;28;20033;-67
2022/11/15 00:59:11;;;;;;;1999.90;999.90;;;7.60;99.90;;;;;;5042765;28;20036;-67
2022/11/15 01:01:37;;;;;;;1999.90;999.90;;;7.70;99.90;;;;;;5037934;28;20033;-67
2022/11/15 01:04:03;;;;;;;1999.90;999.90;;;7.70;99.90;;;;;;5042593;28;20049;-67
2022/11/15 01:06:28;;;;;;;1999.90;999.90;;;7.70;99.90;;;;;;5039563;28;20037;-67
2022/11/15 01:08:54;;;;;;;1999.90;999.90;;;7.70;99.90;;;;;;5034711;28;20151;-67
2022/11/15 01:11:19;;;;;;;1999.90;999.90;;;7.70;99.90;;;;;;5037818;28;20050;-67
2022/11/15 01:13:45;;;;;;;1999.90;999.90;;;7.70;99.90;;;;;;5042365;28;20045;-67
2022/11/15 01:16:14;;;;;;;1999.90;999.90;;;7.80;99.90;;;;;;5039122;28;20094;-67
2022/11/15 01:18:41;;;;;;;1999.90;999.90;;;7.80;99.90;;;;;;5033869;28;20583;-67
2022/11/15 01:21:13;;;;;;;1999.90;999.90;;;7.80;99.90;;;;;;5037222;28;20049;-67
2022/11/15 01:23:39;;;;;;;1999.90;999.90;;;7.80;99.90;;;;;;5037006;28;20045;-67
2022/11/15 01:26:07;;;;;;;1999.90;999.90;;;7.80;99.90;;;;;;5040140;28;20041;-67
2022/11/15 01:28:35;;;;;;;1999.90;999.90;;;7.70;99.90;;;;;;5036472;28;20515;-67
2022/11/15 01:31:08;;;;;;;1999.90;999.90;;;7.70;99.90;;;;;;5052190;28;20045;-67
2022/11/15 01:33:38;;;;;;;1999.90;999.90;;;7.70;99.90;;;;;;5038710;28;20461;-67
2022/11/15 01:36:10;;;;;;;1999.90;999.90;;;7.70;99.90;;;;;;5042510;28;20094;-67
2022/11/15 01:38:35;;;;;;;1999.90;999.90;;;7.60;99.90;;;;;;5041887;28;20427;-67
2022/11/15 01:41:01;;;;;;;1999.90;999.90;;;7.60;99.90;;;;;;5040469;28;20136;-67
2022/11/15 01:43:32;;;;;;;1999.90;999.90;;;7.60;99.90;;;;;;5039141;28;20186;-67
2022/11/15 01:46:25;;;;;;;1999.90;999.90;;;7.60;99.90;;;;;;5031750;28;20041;-67
2022/11/15 01:48:53;;;;;;;1999.90;999.90;;;7.60;99.90;;;;;;5038659;28;20057;-67
2022/11/15 01:51:21;;;;;;;1999.90;999.90;;;7.50;99.90;;;;;;5038236;28;20493;-67
2022/11/15 01:53:51;;;;;;;1999.90;999.90;;;7.50;99.90;;;;;;5024001;28;20164;-67
2022/11/15 01:56:20;;;;;;;1999.90;999.90;;;7.50;99.90;;;;;;5038866;28;20077;-67
2022/11/15 01:58:46;;;;;;;1999.90;999.90;;;7.50;99.90;;;;;;5033588;28;20049;-67
2022/11/15 02:01:15;;;;;;;1999.90;999.90;;;7.50;99.90;;;;;;5031868;28;20099;-67
2022/11/15 02:03:58;;;;;;;1999.90;999.90;;;7.50;99.90;;;;;;5043378;28;20055;-67
2022/11/15 02:06:24;;;;;;;1999.90;999.90;;;7.50;99.90;;;;;;5036201;28;20442;-67
2022/11/15 02:08:51;;;;;;;1999.90;999.90;;;7.50;99.90;;;;;;5044134;28;20155;-67
2022/11/15 02:11:17;;;;;;;1999.90;999.90;;;7.50;99.90;;;;;;5043121;28;20040;-67
2022/11/15 02:13:43;;;;;;;1999.90;999.90;;;7.50;99.90;;;;;;5048456;28;20040;-67
2022/11/15 02:16:39;;;;;;;1999.90;999.90;;;7.50;99.90;;;;;;5047778;28;20168;-67
2022/11/15 02:19:27;;;;;;;1999.90;999.90;;;7.40;99.90;;;;;;5047179;28;20123;-67
2022/11/15 02:22:35;;;;;;;1999.90;999.90;;;7.40;99.90;;;;;;5049831;28;20048;-67
2022/11/15 02:25:29;;;;;;;1999.90;999.90;;;7.40;99.90;;;;;;5036573;28;20136;-67
2022/11/15 02:28:28;;;;;;;1999.90;999.90;;;7.40;99.90;;;;;;5046659;28;20040;-67
2022/11/15 02:31:04;;;;;;;1999.90;999.90;;;7.40;99.90;;;;;;5040858;28;20159;-67
2022/11/15 02:33:36;;;;;;;1999.90;999.90;;;7.40;99.90;;;;;;5037988;28;20056;-67
2022/11/15 02:36:25;;;;;;;1999.90;999.90;;;7.40;99.90;;;;;;5046719;28;20048;-67
2022/11/15 02:39:23;;;;;;;1999.90;999.90;;;7.40;99.90;;;;;;5045015;28;20401;-67
2022/11/15 02:42:04;;;;;;;1999.90;999.90;;;7.40;99.90;;;;;;5049419;28;20498;-67
2022/11/15 02:44:43;;;;;;;1999.90;999.90;;;7.40;99.90;;;;;;5039778;28;20177;-67
2022/11/15 02:47:13;;;;;;;1999.90;999.90;;;7.40;99.90;;;;;;5041096;28;20041;-67
2022/11/15 02:49:53;;;;;;;1999.90;999.90;;;7.40;99.90;;;;;;5041100;28;20037;-67
2022/11/15 02:52:25;;;;;;;1999.90;999.90;;;7.40;99.90;;;;;;5044913;28;20057;-67
2022/11/15 02:54:57;;;;;;;1999.90;999.90;;;7.40;99.90;;;;;;5043395;28;20051;-67
2022/11/15 02:57:52;;;;;;;1999.90;999.90;;;7.40;99.90;;;;;;5047052;28;20416;-67
2022/11/15 03:00:19;;;;;;;1999.90;999.90;;;7.40;99.90;;;;;;5029885;28;20041;-67
2022/11/15 03:03:11;;;;;;;1999.90;999.90;;;7.40;99.90;;;;;;5043906;28;20049;-67
2022/11/15 03:06:14;;;;;;;1999.90;999.90;;;7.40;99.90;;;;;;5047559;28;20069;-67
2022/11/15 03:08:49;;;;;;;1999.90;999.90;;;7.40;99.90;;;;;;5024314;28;20049;-67
2022/11/15 03:11:20;;;;;;;1999.90;999.90;;;7.40;99.90;;;;;;5040599;28;20049;-67
2022/11/15 03:13:51;;;;;;;1999.90;999.90;;;7.40;99.90;;;;;;5039237;28;20095;-67
2022/11/15 03:16:24;;;;;;;1999.90;999.90;;;7.50;99.90;;;;;;5048033;28;20043;-67
2022/11/15 03:18:57;;;;;;;1999.90;999.90;;;7.50;99.90;;;;;;5043566;28;20048;-67
2022/11/15 03:21:24;;;;;;;1999.90;999.90;;;7.40;99.90;;;;;;5035916;28;20559;-67
2022/11/15 03:23:52;;;;;;;1999.90;999.90;;;7.50;99.90;;;;;;5025464;28;20405;-67
2022/11/15 03:26:21;;;;;;;1999.90;999.90;;;7.50;99.90;;;;;;5042987;28;20706;-67
2022/11/15 03:29:12;;;;;;;1999.90;999.90;;;7.50;99.90;;;;;;5044893;28;20045;-67
2022/11/15 03:31:47;;;;;;;1999.90;999.90;;;7.50;99.90;;;;;;5035673;28;20611;-67
2022/11/15 03:34:27;;;;;;;1999.90;999.90;;;7.50;99.90;;;;;;5040271;28;20045;-67
2022/11/15 03:36:52;;;;;;;1999.90;999.90;;;7.50;99.90;;;;;;5041638;28;20090;-67
2022/11/15 03:39:20;;;;;;;1999.90;999.90;;;7.50;99.90;;;;;;5036758;28;20493;-67
2022/11/15 03:41:52;;;;;;;1999.90;999.90;;;7.60;99.90;;;;;;5044935;28;20036;-67
2022/11/15 03:44:34;;;;;;;1999.90;999.90;;;7.60;99.90;;;;;;5044804;28;20064;-67
2022/11/15 03:47:09;;;;;;;1999.90;999.90;;;7.60;99.90;;;;;;5035123;28;20053;-67
2022/11/15 03:49:38;;;;;;;1999.90;999.90;;;7.60;99.90;;;;;;5046196;28;20041;-67
2022/11/15 03:52:05;;;;;;;1999.90;999.90;;;7.60;99.90;;;;;;5053785;28;20046;-67
2022/11/15 03:54:30;;;;;;;1999.90;999.90;;;7.60;99.90;;;;;;5037211;28;20196;-67
2022/11/15 03:56:56;;;;;;;1999.90;999.90;;;7.70;99.90;;;;;;5041679;28;20122;-67
2022/11/15 03:59:22;;;;;;;1999.90;999.90;;;7.70;99.90;;;;;;5042405;28;20029;-67
2022/11/15 04:01:47;;;;;;;1999.90;999.90;;;7.70;99.90;;;;;;5039713;28;20033;-67
2022/11/15 04:04:13;;;;;;;1999.90;999.90;;;7.70;99.90;;;;;;5039153;28;20044;-67
2022/11/15 04:06:38;;;;;;;1999.90;999.90;;;7.80;99.90;;;;;;5039193;28;20033;-67
2022/11/15 04:09:04;;;;;;;1999.90;999.90;;;7.80;99.90;;;;;;5039210;28;20065;-67
2022/11/15 04:11:30;;;;;;;1999.90;999.90;;;7.80;99.90;;;;;;5038651;28;20320;-67
2022/11/15 04:13:55;;;;;;;1999.90;999.90;;;7.80;99.90;;;;;;5037800;28;20044;-67
2022/11/15 04:16:21;;;;;;;1999.90;999.90;;;7.80;99.90;;;;;;5044072;28;20052;-67
2022/11/15 04:24:11;;;;;;;1999.90;999.90;;;7.80;99.90;;;;;;5016289;28;20503;-67
2022/11/15 04:24:16;;;;;;;1999.90;999.90;;;7.80;99.90;;;;;;5029607;28;20041;-67
2022/11/15 04:26:42;;;;;;;1999.90;999.90;;;7.80;99.90;;;;;;5041855;28;20078;-67
2022/11/15 04:31:52;;;;;;;1999.90;999.90;;;7.90;99.90;;;;;;5036320;28;20611;-67
2022/11/15 04:34:17;;;;;;;1999.90;999.90;;;7.90;99.90;;;;;;5039561;28;20485;-67
2022/11/15 04:39:27;;;;;;;1999.90;999.90;;;8.00;99.90;;;;;;5036047;28;20045;-67
2022/11/15 04:41:53;;;;;;;1999.90;999.90;;;8.00;99.90;;;;;;5041298;28;20045;-67
2022/11/15 04:44:18;;;;;;;1999.90;999.90;;;8.00;99.90;;;;;;5040909;28;20071;-67
2022/11/15 04:46:44;;;;;;;1999.90;999.90;;;8.00;99.90;;;;;;5044372;28;20452;-67
2022/11/15 04:49:09;;;;;;;1999.90;999.90;;;8.00;99.90;;;;;;5027131;28;20040;-67
2022/11/15 04:51:35;;;;;;;1999.90;999.90;;;8.00;99.90;;;;;;5031804;28;20090;-67
2022/11/15 04:54:00;;;;;;;1999.90;999.90;;;8.00;99.90;;;;;;5032140;28;20382;-67
2022/11/15 04:56:26;;;;;;;1999.90;999.90;;;8.10;99.90;;;;;;5044847;28;20041;-67
2022/11/15 04:58:52;;;;;;;1999.90;999.90;;;8.10;99.90;;;;;;5038242;28;20048;-67
2022/11/15 05:01:17;;;;;;;1999.90;999.90;;;8.10;99.90;;;;;;5036099;28;20044;-67
2022/11/15 05:06:29;;;;;;;1999.90;999.90;;;8.20;99.90;;;;;;5043465;28;20045;-67
2022/11/15 05:08:55;;;;;;;1999.90;999.90;;;8.20;99.90;;;;;;5036373;28;20045;-67
2022/11/15 05:11:21;;;;;;;1999.90;999.90;;;8.20;99.90;;;;;;5036136;28;20049;-67
2022/11/15 05:13:47;;;;;;;1999.90;999.90;;;8.20;99.90;;;;;;5037654;28;20048;-67
2022/11/15 05:16:12;;;;;;;1999.90;999.90;;;8.30;99.90;;;;;;5037049;28;20375;-67
2022/11/15 05:18:40;;;;;;;1999.90;999.90;;;8.30;99.90;;;;;;5033786;28;20094;-67
2022/11/15 05:21:09;;;;;;;1999.90;999.90;;;8.30;99.90;;;;;;5050022;28;20033;-67
2022/11/15 05:23:34;;;;;;;1999.90;999.90;;;8.40;99.90;;;;;;5037983;28;20044;-67
2022/11/15 05:26:04;;;;;;;1999.90;999.90;;;8.40;99.90;;;;;;5050555;28;20680;-67
2022/11/15 05:28:30;;;;;;;1999.90;999.90;;;8.40;99.90;;;;;;5037375;28;20087;-67
2022/11/15 05:31:07;;;;;;;1999.90;999.90;;;8.50;99.90;;;;;;5026078;28;20492;-67
2022/11/15 05:33:35;;;;;;;1999.90;999.90;;;8.50;99.90;;;;;;5024935;28;20382;-67
2022/11/15 05:36:23;;;;;;;1999.90;999.90;;;8.50;99.90;;;;;;5040844;28;20444;-67
2022/11/15 05:38:50;;;;;;;1999.90;999.90;;;8.50;99.90;;;;;;5028328;28;20053;-67
2022/11/15 05:41:18;;;;;;;1999.90;999.90;;;8.60;99.90;;;;;;5037538;28;20037;-67
2022/11/15 05:43:44;;;;;;;1999.90;999.90;;;8.70;99.90;;;;;;5024495;28;20099;-67
2022/11/15 05:46:13;;;;;;;1999.90;999.90;;;8.70;99.90;;;;;;5038723;28;20048;-67
2022/11/15 05:48:41;;;;;;;1999.90;999.90;;;8.70;99.90;;;;;;5038290;28;20044;-67
2022/11/15 05:51:07;;;;;;;1999.90;999.90;;;8.70;99.90;;;;;;5040693;28;20044;-67
2022/11/15 05:53:34;;;;;;;1999.90;999.90;;;8.80;99.90;;;;;;5036630;28;20099;-67
2022/11/15 05:56:00;;;;;;;1999.90;999.90;;;8.80;99.90;;;;;;5019626;28;20055;-67
2022/11/15 05:58:25;;;;;;;1999.90;999.90;;;8.80;99.90;;;;;;5037957;28;20041;-67
2022/11/15 06:00:51;;;;;;;1999.90;999.90;;;8.80;99.90;;;;;;5035564;28;20049;-67
2022/11/15 06:03:16;;;;;;;1999.90;999.90;;;8.90;99.90;;;;;;5036980;28;20416;-67
2022/11/15 06:05:42;;;;;;;1999.90;999.90;;;8.90;99.90;;;;;;5037917;28;20119;-67
2022/11/15 06:08:07;;;;;;;1999.90;999.90;;;9.00;99.90;;;;;;5043430;28;20043;-67
2022/11/15 06:10:33;;;;;;;1999.90;999.90;;;9.00;99.90;;;;;;5036131;28;20042;-67
2022/11/15 06:13:00;;;;;;;1999.90;999.90;;;9.00;99.90;;;;;;5037708;28;20515;-67
2022/11/15 06:15:25;;;;;;;1999.90;999.90;;;9.00;99.90;;;;;;5041625;28;20045;-67
2022/11/15 06:17:51;;;;;;;1999.90;999.90;;;9.10;99.90;;;;;;5041159;28;20068;-67
2022/11/15 06:20:17;;;;;;;1999.90;999.90;;;9.20;99.90;;;;;;5037773;28;20072;-67
2022/11/15 06:22:43;;;;;;;1999.90;999.90;;;9.20;99.90;;;;;;5040495;28;20250;-67
2022/11/15 06:25:09;;;;;;;1999.90;999.90;;;9.30;99.90;;;;;;5040785;28;20059;-67
2022/11/15 06:27:34;;;;;;;1999.90;999.90;;;9.30;99.90;;;;;;5034853;28;20050;-67
2022/11/15 06:30:00;;;;;;;1999.90;999.90;;;9.30;99.90;;;;;;5040228;28;20094;-67
2022/11/15 06:32:26;;;;;;;1999.90;999.90;;;9.30;99.90;;;;;;5034000;28;20038;-67
2022/11/15 06:34:51;;;;;;;1999.90;999.90;;;9.40;99.90;;;;;;5041116;28;20029;-67
2022/11/15 06:37:17;;;;;;;1999.90;999.90;;;9.40;99.90;;;;;;5035131;28;20044;-67
2022/11/15 06:39:42;;;;;;;1999.90;999.90;;;9.40;99.90;;;;;;5024287;28;20033;-67
2022/11/15 06:42:08;;;;;;;1999.90;999.90;;;9.40;99.90;;;;;;5035399;28;20482;-67
2022/11/15 06:44:34;;;;;;;1999.90;999.90;;;9.50;99.90;;;;;;5034216;28;20080;-67
2022/11/15 06:46:59;;;;;;;1999.90;999.90;;;9.50;99.90;;;;;;5043962;28;20037;-67
2022/11/15 06:49:25;;;;;;;1999.90;999.90;;;9.50;99.90;;;;;;5041938;28;20124;-67
2022/11/15 06:51:50;;;;;;;1999.90;999.90;;;9.60;99.90;;;;;;5036431;28;20503;-67
2022/11/15 06:54:16;;;;;;;1999.90;999.90;;;9.60;99.90;;;;;;5042580;28;20489;-67
2022/11/15 06:56:42;;;;;;;1999.90;999.90;;;9.60;99.90;;;;;;5022665;28;20405;-67
2022/11/15 06:59:07;;;;;;;1999.90;999.90;;;9.70;99.90;;;;;;5015800;28;20113;-67
2022/11/15 07:01:33;;;;;;;1999.90;999.90;;;9.70;99.90;;;;;;5025357;28;20102;-67
2022/11/15 07:03:58;;;;;;;1999.90;999.90;;;9.70;99.90;;;;;;5044462;28;20041;-67
2022/11/15 07:06:24;;;;;;;1999.90;999.90;;;9.70;99.90;;;;;;5035936;28;20033;-67
2022/11/15 07:08:49;;;;;;;1999.90;999.90;;;9.70;99.90;;;;;;5039945;28;20037;-67
2022/11/15 07:11:15;;;;;;;1999.90;999.90;;;9.70;99.90;;;;;;5043607;28;20033;-67
2022/11/15 07:13:40;;;;;;;1999.90;999.90;;;9.80;99.90;;;;;;5044271;28;20484;-67
2022/11/15 07:16:08;;;;;;;1999.90;999.90;;;9.80;99.90;;;;;;5040677;28;20484;-67
2022/11/15 07:18:39;;;;;;;1999.90;999.90;;;9.80;99.90;;;;;;5045582;28;20033;-67
2022/11/15 07:21:06;;;;;;;1999.90;999.90;;;9.90;99.90;;;;;;5022261;28;20044;-67
2022/11/15 07:23:32;;;;;;;1999.90;999.90;;;9.90;99.90;;;;;;5042269;28;20048;-67
2022/11/15 07:25:59;;;;;;;1999.90;999.90;;;9.90;99.90;;;;;;5035663;28;20048;-67
2022/11/15 07:28:27;;;;;;;1999.90;999.90;;;10.00;99.90;;;;;;5042084;28;20111;-67
2022/11/15 07:30:53;;;;;;;1999.90;999.90;;;10.00;99.90;;;;;;5036474;28;20124;-67
2022/11/15 07:33:19;;;;;;;1999.90;999.90;;;10.10;99.90;;;;;;5050349;28;20477;-67
2022/11/15 07:35:48;;;;;;;1999.90;999.90;;;10.10;99.90;;;;;;5042599;28;20388;-67
2022/11/15 07:38:14;;;;;;;1999.90;999.90;;;10.10;99.90;;;;;;5022961;28;20547;-67
2022/11/15 07:40:40;;;;;;;1999.90;999.90;;;10.20;99.90;;;;;;5041526;28;20456;-67
2022/11/15 07:43:08;;;;;;;1999.90;999.90;;;10.20;99.90;;;;;;5039871;28;20457;-67
2022/11/15 07:45:34;;;;;;;1999.90;999.90;;;10.20;99.90;;;;;;5039797;28;20124;-67
2022/11/15 07:48:00;;;;;;;1999.90;999.90;;;10.30;99.90;;;;;;5040971;28;20053;-67
2022/11/15 07:50:26;;;;;;;1999.90;999.90;;;10.30;99.90;;;;;;5042741;28;20041;-67
2022/11/15 07:52:56;;;;;;;1999.90;999.90;;;10.30;99.90;;;;;;5017086;28;20067;-67
2022/11/15 07:55:27;;;;;;;1999.90;999.90;;;10.30;99.90;;;;;;5035959;28;20081;-67
2022/11/15 07:57:53;;;;;;;1999.90;999.90;;;10.40;99.90;;;;;;5040038;28;20041;-67
2022/11/15 08:00:19;;;;;;;1999.90;999.90;;;10.40;99.90;;;;;;5040051;28;20049;-67
2022/11/15 08:02:45;;;;;;;1999.90;999.90;;;10.40;99.90;;;;;;5042641;28;20069;-67
2022/11/15 08:05:11;;;;;;;1999.90;999.90;;;10.50;99.90;;;;;;5040579;28;20471;-67
2022/11/15 08:07:37;;;;;;;1999.90;999.90;;;10.50;99.90;;;;;;5039320;28;20107;-67
2022/11/15 08:10:05;;;;;;;1999.90;999.90;;;10.50;99.90;;;;;;5044018;28;20060;-68
2022/11/15 08:12:31;;;;;;;1999.90;999.90;;;10.60;99.90;;;;;;5042586;28;20109;-67
2022/11/15 08:14:57;;;;;;;1999.90;999.90;;;10.60;99.90;;;;;;5024519;28;20047;-67
2022/11/15 08:17:24;;;;;;;1999.90;999.90;;;10.60;99.90;;;;;;5041853;28;20497;-67
2022/11/15 08:19:49;;;;;;;1999.90;999.90;;;10.70;99.90;;;;;;5043029;28;20138;-67
2022/11/15 08:22:15;;;;;;;1999.90;999.90;;;10.80;99.90;;;;;;5039928;28;20576;-67
2022/11/15 08:24:40;;;;;;;1999.90;999.90;;;10.80;99.90;;;;;;5035224;28;20052;-67
2022/11/15 08:27:14;;;;;;;1999.90;999.90;;;10.90;99.90;;;;;;5041296;28;20168;-67
2022/11/15 08:29:41;;;;;;;1999.90;999.90;;;10.90;99.90;;;;;;5042488;28;20041;-67
2022/11/15 08:32:07;;;;;;;1999.90;999.90;;;11.00;99.90;;;;;;5046452;28;20387;-67
2022/11/15 08:34:32;;;;;;;1999.90;999.90;;;11.00;99.90;;;;;;5040312;28;20047;-67
2022/11/15 08:36:58;;;;;;;1999.90;999.90;;;11.10;99.90;;;;;;5026011;28;20045;-67
2022/11/15 08:39:23;;;;;;;1999.90;999.90;;;11.10;99.90;;;;;;5045282;28;20052;-67
2022/11/15 08:41:49;;;;;;;1999.90;999.90;;;11.10;99.90;;;;;;5037743;28;20041;-67
2022/11/15 08:44:14;;;;;;;1999.90;999.90;;;11.10;99.90;;;;;;5042119;28;20037;-67
2022/11/15 08:46:40;;;;;;;1999.90;999.90;;;11.20;99.90;;;;;;5031972;28;20128;-67
2022/11/15 08:49:05;;;;;;;1999.90;999.90;;;11.20;99.90;;;;;;5042449;28;20037;-67
2022/11/15 08:51:31;;;;;;;1999.90;999.90;;;11.30;99.90;;;;;;5037678;28;20035;-67
2022/11/15 08:53:56;;;;;;;1999.90;999.90;;;11.30;99.90;;;;;;5042883;28;20076;-67
2022/11/15 08:56:22;;;;;;;1999.90;999.90;;;11.30;99.90;;;;;;5026002;28;20049;-67
2022/11/15 08:58:48;;;;;;;1999.90;999.90;;;11.30;99.90;;;;;;5037221;28;20502;-67
2022/11/15 09:01:23;;;;;;;1999.90;999.90;;;11.30;99.90;;;;;;5039582;28;20052;-67
2022/11/15 09:03:48;;;;;;;1999.90;999.90;;;11.30;99.90;;;;;;5037050;28;21259;-67
2022/11/15 09:06:14;;;;;;;1999.90;999.90;;;11.30;99.90;;;;;;5036965;28;20043;-68
2022/11/15 09:08:40;;;;;;;1999.90;999.90;;;11.30;99.90;;;;;;5030394;28;20045;-67
2022/11/15 09:11:08;;;;;;;1999.90;999.90;;;11.40;99.90;;;;;;5038945;28;20037;-67
2022/11/15 09:13:36;;;;;;;1999.90;999.90;;;11.40;99.90;;;;;;5039146;28;20179;-67
2022/11/15 09:16:03;;;;;;;1999.90;999.90;;;11.40;99.90;;;;;;5039491;28;20412;-67
2022/11/15 09:18:29;;;;;;;1999.90;999.90;;;11.40;99.90;;;;;;5034314;28;20611;-67
2022/11/15 09:20:58;;;;;;;1999.90;999.90;;;11.50;99.90;;;;;;5036983;28;20116;-67
2022/11/15 09:23:25;;;;;;;1999.90;999.90;;;11.50;99.90;;;;;;5039407;28;20079;-67
2022/11/15 09:25:52;;;;;;;1999.90;999.90;;;11.60;99.90;;;;;;5036975;28;20057;-67
2022/11/15 09:28:18;;;;;;;1999.90;999.90;;;11.60;99.90;;;;;;5020108;28;20045;-67
2022/11/15 09:30:43;;;;;;;1999.90;999.90;;;11.60;99.90;;;;;;5037727;28;20060;-67
2022/11/15 09:33:11;;;;;;;1999.90;999.90;;;11.70;99.90;;;;;;5039778;28;20045;-67
2022/11/15 09:35:36;;;;;;;1999.90;999.90;;;11.70;99.90;;;;;;5034914;28;20140;-67
2022/11/15 09:38:03;;;;;;;1999.90;999.90;;;11.70;99.90;;;;;;5039920;28;20053;-67
2022/11/15 09:40:31;;;;;;;1999.90;999.90;;;11.70;99.90;;;;;;5040855;28;20043;-67
2022/11/15 09:43:26;;;;;;;1999.90;999.90;;;11.70;99.90;;;;;;5037357;28;20049;-67
2022/11/15 09:46:13;;;;;;;1999.90;999.90;;;11.70;99.90;;;;;;5021399;28;20861;-67
2022/11/15 09:48:44;;;;;;;1999.90;999.90;;;11.70;99.90;;;;;;5049606;28;20045;-67
2022/11/15 09:51:19;;;;;;;1999.90;999.90;;;11.80;99.90;;;;;;5032941;28;20069;-67
2022/11/15 09:53:58;;;;;;;1999.90;999.90;;;11.80;99.90;;;;;;5047675;28;20440;-67
2022/11/15 09:56:30;;;;;;;1999.90;999.90;;;11.90;99.90;;;;;;5032530;28;20044;-67
2022/11/15 09:59:08;;;;;;;1999.90;999.90;;;12.00;99.90;;;;;;5038630;28;20036;-67
2022/11/15 10:01:51;;;;;;;1999.90;999.90;;;12.00;99.90;;;;;;5039575;28;20064;-67
2022/11/15 10:04:16;;;;;;;1999.90;999.90;;;12.00;99.90;;;;;;5035523;28;20049;-67
2022/11/15 10:06:51;;;;;;;1999.90;999.90;;;12.00;99.90;;;;;;5039968;28;20033;-67
2022/11/15 10:09:47;;;;;;;1999.90;999.90;;;12.00;99.90;;;;;;5033402;28;20052;-67
2022/11/15 10:12:14;;;;;;;1999.90;999.90;;;12.00;99.90;;;;;;5041873;28;20091;-67
2022/11/15 10:14:41;;;;;;;1999.90;999.90;;;12.10;99.90;;;;;;5034519;28;20432;-68
2022/11/15 10:17:25;;;;;;;1999.90;999.90;;;12.10;99.90;;;;;;5033501;28;20497;-68
2022/11/15 10:20:23;;;;;;;1999.90;999.90;;;12.10;99.90;;;;;;5043715;28;20040;-68
2022/11/15 10:23:06;;;;;;;1999.90;999.90;;;12.20;99.90;;;;;;5046355;28;20055;-67
2022/11/15 10:25:35;;;;;;;1999.90;999.90;;;12.30;99.90;;;;;;5017098;28;20061;-67
2022/11/15 10:28:03;;;;;;;1999.90;999.90;;;12.30;99.90;;;;;;5037294;28;20488;-67
2022/11/15 10:30:44;;;;;;;1999.90;999.90;;;12.40;99.90;;;;;;5040682;28;20091;-67
2022/11/15 10:33:25;;;;;;;1999.90;999.90;;;12.60;99.90;;;;;;5016723;28;20041;-68
2022/11/15 10:36:15;;;;;;;1999.90;999.90;;;12.70;99.90;;;;;;5035592;28;20049;-67
2022/11/15 10:38:50;;;;;;;1999.90;999.90;;;12.70;99.90;;;;;;5022522;28;20103;-67
2022/11/15 10:41:29;;;;;;;1999.90;999.90;;;12.60;99.90;;;;;;5037965;28;20040;-68
2022/11/15 10:44:12;;;;;;;1999.90;999.90;;;12.60;99.90;;;;;;5036571;28;20057;-67
2022/11/15 10:46:39;;;;;;;;;;;12.60;99.90;;;;;;5043167;28;20048;-67
2022/11/15 10:49:31;;;;;;;1999.90;999.90;;;12.60;99.90;;;;;;5037294;28;19917;-68
2022/11/15 10:52:05;;;;;;;1999.90;999.90;;;12.60;99.90;;;;;;5041884;28;20033;-67
2022/11/15 10:54:33;;;;;;;1999.90;999.90;;;12.70;99.90;;;;;;5042555;28;20056;-67
2022/11/15 10:57:04;;;;;;;1999.90;999.90;;;12.70;99.90;;;;;;5042226;28;20044;-68
2022/11/15 10:59:33;;;;;;;1999.90;999.90;;;12.80;99.90;;;;;;5035727;28;20483;-68
2022/11/15 11:01:59;;;;;;;1999.90;999.90;;;12.80;99.90;;;;;;5023472;28;20044;-68
2022/11/15 11:04:25;;;;;;;1999.90;999.90;;;12.80;99.90;;;;;;5037650;28;20091;-67
2022/11/15 11:06:57;;;;;;;1999.90;999.90;;;12.90;99.90;;;;;;5044416;28;20033;-68
2022/11/15 11:09:33;;;;;;;1999.90;999.90;;;12.90;99.90;;;;;;5042147;28;20093;-67
2022/11/15 11:11:59;;;;;;;1999.90;999.90;;;12.80;99.90;;;;;;5043185;28;20045;-68
2022/11/15 11:14:30;;;;;;;1999.90;999.90;;;12.80;99.90;;;;;;5041216;28;20105;-67
2022/11/15 11:17:19;;;;;;;1999.90;999.90;;;12.80;99.90;;;;;;5035090;28;20496;-67
2022/11/15 11:19:52;;;;;;;1999.90;999.90;;;12.80;99.90;;;;;;5009211;28;20052;-67
2022/11/15 11:22:21;;;;;;;;;;;12.80;99.90;;;;;;5041574;28;20045;-67
2022/11/15 11:25:02;;;;;;;1999.90;999.90;;;12.90;99.90;;;;;;5036791;28;19929;-67
2022/11/15 11:27:54;;;;;;;1999.90;999.90;;;13.00;99.90;;;;;;5043783;28;20041;-67
2022/11/15 11:30:51;;;;;;;1999.90;999.90;;;13.00;99.90;;;;;;5029472;28;20420;-67
2022/11/15 11:33:27;;;;;;;1999.90;999.90;;;13.00;99.90;;;;;;5023282;28;20121;-67
2022/11/15 11:36:14;;;;;;;1999.90;999.90;;;13.10;99.90;;;;;;5041693;28;20956;-67
2022/11/15 11:39:10;;;;;;;1999.90;999.90;;;13.10;99.90;;;;;;5042078;28;20135;-68
2022/11/15 11:41:58;;;;;;;1999.90;999.90;;;13.20;99.90;;;;;;5040996;28;20090;-68
2022/11/15 11:44:48;;;;;;;1999.90;999.90;;;13.20;99.90;;;;;;5036359;28;20045;-67
2022/11/15 11:47:25;;;;;;;1999.90;999.90;;;13.20;99.90;;;;;;5048817;28;20037;-68
2022/11/15 11:49:53;;;;;;;1999.90;999.90;;;13.10;99.90;;;;;;5036476;28;20096;-68
2022/11/15 11:52:33;;;;;;;1999.90;999.90;;;13.10;99.90;;;;;;5054982;28;20041;-67
2022/11/15 11:55:21;;;;;;;1999.90;999.90;;;13.10;99.90;;;;;;5042775;28;20446;-67
2022/11/15 11:58:12;;;;;;;1999.90;999.90;;;13.10;99.90;;;;;;5038992;28;20455;-67
2022/11/15 12:00:43;;;;;;;1999.90;999.90;;;13.10;99.90;;;;;;5025827;28;20053;-67
2022/11/15 12:03:38;;;;;;;1999.90;999.90;;;13.00;99.90;;;;;;5037724;28;20043;-67
2022/11/15 12:06:30;;;;;;;1999.90;999.90;;;13.00;99.90;;;;;;5039913;28;20032;-67
2022/11/15 12:09:20;;;;;;;1999.90;999.90;;;13.20;99.90;;;;;;5036656;28;20045;-68
2022/11/15 12:12:11;;;;;;;1999.90;999.90;;;13.20;99.90;;;;;;5037563;28;20041;-67
2022/11/15 12:14:48;;;;;;;1999.90;999.90;;;13.30;99.90;;;;;;5043806;28;20041;-67
2022/11/15 12:17:16;;;;;;;1999.90;999.90;;;13.30;99.90;;;;;;5027596;28;20041;-67
2022/11/15 12:19:42;;;;;;;1999.90;999.90;;;13.20;99.90;;;;;;5039646;28;20041;-68
2022/11/15 12:22:22;;;;;;;1999.90;999.90;;;13.10;99.90;;;;;;5030755;28;20365;-68
2022/11/15 12:25:01;;;;;;;1999.90;999.90;;;13.00;99.90;;;;;;5048332;28;20048;-67
2022/11/15 12:28:09;;;;;;;1999.90;999.90;;;12.90;99.90;;;;;;5022257;28;20045;-67
2022/11/15 12:30:52;;;;;;;1999.90;999.90;;;12.80;99.90;;;;;;5018815;28;20049;-67
2022/11/15 12:33:31;;;;;;;1999.90;999.90;;;12.80;99.90;;;;;;5022631;28;20061;-67
2022/11/15 12:35:59;;;;;;;1999.90;999.90;;;12.90;99.90;;;;;;5038095;28;20546;-67